createdAt,value
2022-11-01T00:01:47.460Z,11.70
2022-11-01T00:04:14.097Z,12.60
2022-11-01T00:06:40.835Z,14.32
2022-11-01T00:09:07.543Z,13.50
2022-11-01T00:11:34.219Z,12.43
2022-11-01T00:14:00.795Z,12.35
2022-11-01T00:16:27.551Z,13.18
2022-11-01T00:18:54.125Z,14.77
2022-11-01T00:21:21.095Z,16.00
2022-11-01T00:23:48.056Z,14.63
2022-11-01T00:26:17.308Z,13.40
2022-11-01T00:28:44.103Z,13.52
2022-11-01T00:31:12.818Z,13.80
2022-11-01T00:33:39.795Z,15.15
2022-11-01T00:36:07.433Z,10.48
2022-11-01T00:38:34.426Z,12.53
2022-11-01T00:41:02.689Z,13.60
2022-11-01T00:43:29.739Z,15.18
2022-11-01T00:45:56.310Z,12.60
2022-11-01T00:48:22.959Z,13.68
2022-11-01T00:50:49.546Z,13.25
2022-11-01T00:53:16.106Z,18.00
2022-11-01T00:55:42.700Z,16.63
2022-11-01T00:58:09.341Z,16.35
2022-11-01T01:00:36.728Z,13.30
2022-11-01T01:03:04.646Z,18.42
2022-11-01T01:05:32.271Z,12.85
2022-11-01T01:07:58.869Z,21.70
2022-11-01T01:10:25.633Z,12.48
2022-11-01T01:12:52.235Z,13.50
2022-11-01T01:15:19.012Z,11.32
2022-11-01T01:17:45.722Z,14.52
2022-11-01T01:20:12.383Z,17.52
2022-11-01T01:22:38.946Z,13.10
2022-11-01T01:25:05.945Z,16.45
2022-11-01T01:27:32.653Z,12.50
2022-11-01T01:29:59.206Z,14.95
2022-11-01T01:32:25.844Z,12.98
2022-11-01T01:34:52.417Z,12.95
2022-11-01T01:37:20.269Z,13.23
2022-11-01T01:39:47.047Z,14.82
2022-11-01T01:42:23.305Z,11.57
2022-11-01T01:44:52.645Z,12.15
2022-11-01T01:47:19.207Z,16.27
2022-11-01T01:49:46.437Z,15.23
2022-11-01T01:52:13.248Z,11.60
2022-11-01T01:54:39.956Z,13.48
2022-11-01T01:57:06.498Z,12.77
2022-11-01T01:59:33.124Z,13.07
2022-11-01T02:02:00.343Z,14.65
2022-11-01T02:04:37.549Z,15.10
2022-11-01T02:07:04.723Z,12.45
2022-11-01T02:09:31.860Z,13.98
2022-11-01T02:11:58.478Z,11.60
2022-11-01T02:14:25.977Z,9.93
2022-11-01T02:17:04.438Z,11.77
2022-11-01T02:19:41.169Z,14.07
2022-11-01T02:22:10.102Z,13.25
2022-11-01T02:24:44.993Z,12.40
2022-11-01T02:27:24.715Z,12.40
2022-11-01T02:29:54.257Z,11.65
2022-11-01T02:32:30.006Z,11.25
2022-11-01T02:35:00.925Z,13.35
2022-11-01T02:37:37.380Z,11.05
2022-11-01T02:40:10.102Z,13.25
2022-11-01T02:42:42.640Z,11.23
2022-11-01T02:45:12.833Z,11.75
2022-11-01T02:47:40.408Z,16.05
2022-11-01T02:50:09.739Z,12.85
2022-11-01T02:52:37.798Z,10.13
2022-11-01T02:55:29.752Z,12.50
2022-11-01T02:58:26.153Z,12.55
2022-11-01T03:00:53.098Z,12.23
2022-11-01T03:03:31.212Z,11.23
2022-11-01T03:06:06.118Z,12.77
2022-11-01T03:08:43.483Z,9.77
2022-11-01T03:11:19.170Z,12.05
2022-11-01T03:14:11.746Z,10.70
2022-11-01T03:16:38.246Z,15.48
2022-11-01T03:19:21.662Z,12.25
2022-11-01T03:21:54.323Z,12.35
2022-11-01T03:24:28.237Z,11.30
2022-11-01T03:27:01.085Z,11.55
2022-11-01T03:29:28.748Z,14.50
2022-11-01T03:31:55.929Z,11.70
2022-11-01T03:34:23.193Z,11.05
2022-11-01T03:36:52.911Z,13.02
2022-11-01T03:39:24.809Z,13.23
2022-11-01T03:41:55.678Z,12.80
2022-11-01T03:44:22.488Z,15.40
2022-11-01T03:46:49.758Z,11.10
2022-11-01T03:49:20.048Z,13.95
2022-11-01T03:51:46.896Z,11.73
2022-11-01T03:54:13.518Z,14.32
2022-11-01T03:56:40.749Z,13.32
2022-11-01T03:59:08.559Z,16.00
2022-11-01T04:01:35.375Z,15.07
2022-11-01T04:04:02.509Z,12.55
2022-11-01T04:06:29.066Z,15.98
2022-11-01T04:08:56.019Z,13.55
2022-11-01T04:11:23.114Z,17.33
2022-11-01T04:13:49.702Z,14.63
2022-11-01T04:16:34.904Z,11.13
2022-11-01T04:19:20.349Z,11.18
2022-11-01T04:21:46.957Z,11.20
2022-11-01T04:24:21.082Z,15.05
2022-11-01T04:26:47.993Z,10.07
2022-11-01T04:29:14.619Z,11.07
2022-11-01T04:31:41.298Z,11.40
2022-11-01T04:34:07.909Z,11.23
2022-11-01T04:36:34.469Z,16.35
2022-11-01T04:39:01.033Z,14.35
2022-11-01T04:41:29.067Z,10.32
2022-11-01T04:43:57.604Z,10.50
2022-11-01T04:48:50.821Z,8.80
2022-11-01T04:51:17.670Z,12.55
2022-11-01T04:53:44.395Z,12.25
2022-11-01T04:56:13.424Z,15.02
2022-11-01T04:58:43.207Z,10.63
2022-11-01T05:01:12.783Z,10.95
2022-11-01T05:03:39.448Z,11.32
2022-11-01T05:06:06.283Z,14.10
2022-11-01T05:08:33.109Z,16.10
2022-11-01T05:10:59.871Z,15.25
2022-11-01T05:13:26.526Z,9.98
2022-11-01T05:16:17.936Z,9.13
2022-11-01T05:18:42.446Z,14.40
2022-11-01T05:21:09.005Z,15.43
2022-11-01T05:23:35.573Z,9.57
2022-11-01T05:26:02.118Z,10.77
2022-11-01T05:28:28.659Z,11.55
2022-11-01T05:30:55.314Z,14.15
2022-11-01T05:33:21.851Z,11.93
2022-11-01T05:35:48.780Z,13.02
2022-11-01T05:38:15.358Z,10.70
2022-11-01T05:40:41.949Z,14.20
2022-11-01T05:43:09.017Z,12.10
2022-11-01T05:45:35.693Z,11.52
2022-11-01T05:48:03.808Z,12.75
2022-11-01T05:50:30.592Z,13.73
2022-11-01T05:53:07.540Z,10.73
2022-11-01T05:55:34.622Z,11.38
2022-11-01T05:58:01.317Z,10.95
2022-11-01T06:00:27.927Z,12.40
2022-11-01T06:02:57.866Z,9.65
2022-11-01T06:05:25.302Z,11.20
2022-11-01T06:07:51.879Z,8.68
2022-11-01T06:10:18.577Z,7.43
2022-11-01T06:12:45.169Z,12.68
2022-11-01T06:15:12.018Z,6.88
2022-11-01T06:17:38.574Z,8.18
2022-11-01T06:20:06.179Z,9.82
2022-11-01T06:22:36.029Z,8.18
2022-11-01T06:25:02.646Z,9.18
2022-11-01T06:27:29.247Z,12.98
2022-11-01T06:29:55.786Z,6.20
2022-11-01T06:32:22.349Z,8.27
2022-11-01T06:34:48.919Z,7.05
2022-11-01T06:37:15.764Z,9.52
2022-11-01T06:39:42.403Z,8.48
2022-11-01T06:42:09.406Z,7.55
2022-11-01T06:44:35.976Z,10.90
2022-11-01T06:47:02.556Z,8.93
2022-11-01T06:49:29.513Z,6.03
2022-11-01T06:51:56.309Z,5.07
2022-11-01T06:54:22.862Z,8.82
2022-11-01T06:56:49.547Z,7.50
2022-11-01T06:59:17.003Z,8.23
2022-11-01T07:01:44.375Z,9.32
2022-11-01T07:06:42.662Z,7.20
2022-11-01T07:09:10.289Z,9.80
2022-11-01T07:11:36.877Z,7.93
2022-11-01T07:14:03.798Z,9.90
2022-11-01T07:16:30.390Z,5.70
2022-11-01T07:18:56.991Z,8.18
2022-11-01T07:21:23.922Z,6.78
2022-11-01T07:23:50.751Z,6.93
2022-11-01T07:26:17.774Z,8.57
2022-11-01T07:28:44.336Z,8.57
2022-11-01T07:31:10.885Z,9.10
2022-11-01T07:33:37.737Z,6.00
2022-11-01T07:36:04.944Z,4.78
2022-11-01T07:38:31.850Z,7.45
2022-11-01T07:40:58.474Z,6.80
2022-11-01T07:43:25.399Z,8.23
2022-11-01T07:45:52.054Z,4.70
2022-11-01T07:48:19.243Z,9.48
2022-11-01T07:50:46.287Z,6.72
2022-11-01T07:53:18.299Z,5.35
2022-11-01T07:55:45.600Z,4.53
2022-11-01T07:58:13.306Z,6.25
2022-11-01T08:00:40.421Z,6.67
2022-11-01T08:03:09.227Z,5.65
2022-11-01T08:05:36.419Z,4.43
2022-11-01T08:08:03.908Z,11.23
2022-11-01T08:10:31.783Z,5.63
2022-11-01T08:13:24.998Z,3.92
2022-11-01T08:15:53.069Z,4.43
2022-11-01T08:18:22.456Z,4.68
2022-11-01T08:20:49.325Z,5.15
2022-11-01T08:23:16.077Z,7.63
2022-11-01T08:25:43.369Z,5.50
2022-11-01T08:28:15.675Z,9.52
2022-11-01T08:30:43.533Z,4.45
2022-11-01T08:33:10.621Z,5.80
2022-11-01T08:35:37.396Z,8.18
2022-11-01T08:38:04.849Z,6.47
2022-11-01T08:40:33.157Z,10.20
2022-11-01T08:43:00.150Z,5.80
2022-11-01T08:48:03.507Z,4.60
2022-11-01T08:50:30.891Z,2.88
2022-11-01T08:52:57.812Z,5.78
2022-11-01T08:55:24.541Z,3.80
2022-11-01T08:57:51.138Z,5.15
2022-11-01T09:00:18.107Z,6.05
2022-11-01T09:02:44.697Z,5.40
2022-11-01T09:05:11.285Z,3.65
2022-11-01T09:07:38.252Z,3.60
2022-11-01T09:10:06.383Z,6.50
2022-11-01T09:12:33.169Z,7.30
2022-11-01T09:14:59.829Z,5.38
2022-11-01T09:17:26.459Z,4.00
2022-11-01T09:19:53.025Z,6.57
2022-11-01T09:22:19.636Z,3.28
2022-11-01T09:24:46.178Z,2.17
2022-11-01T09:27:12.781Z,3.45
2022-11-01T09:29:39.396Z,4.28
2022-11-01T09:32:06.801Z,6.40
2022-11-01T09:34:33.890Z,6.70
2022-11-01T09:37:00.511Z,1.52
2022-11-01T09:39:27.541Z,4.72
2022-11-01T09:42:03.751Z,6.93
2022-11-01T09:44:34.078Z,5.32
2022-11-01T09:47:08.222Z,9.60
2022-11-01T09:49:40.289Z,6.53
2022-11-01T09:52:07.683Z,6.32
2022-11-01T09:54:34.347Z,4.30
2022-11-01T09:57:12.991Z,13.15
2022-11-01T10:00:04.325Z,7.32
2022-11-01T10:02:50.251Z,3.20
2022-11-01T10:05:48.634Z,7.65
2022-11-01T10:08:27.283Z,3.92
2022-11-01T10:11:10.378Z,4.32
2022-11-01T10:13:45.561Z,5.65
2022-11-01T10:16:42.128Z,8.68
2022-11-01T10:19:19.433Z,3.30
2022-11-01T10:21:49.164Z,5.57
2022-11-01T10:24:24.877Z,10.45
2022-11-01T10:26:56.431Z,6.88
2022-11-01T10:29:44.823Z,8.20
2022-11-01T10:34:50.951Z,9.82
2022-11-01T10:37:23.934Z,6.63
2022-11-01T10:40:06.344Z,7.18
2022-11-01T10:42:36.073Z,8.45
2022-11-01T10:45:08.889Z,5.88
2022-11-01T10:47:35.493Z,7.95
2022-11-01T10:50:11.279Z,10.63
2022-11-01T10:52:43.704Z,10.63
2022-11-01T10:55:15.976Z,6.40
2022-11-01T10:57:45.774Z,14.90
2022-11-01T11:00:18.303Z,11.02
2022-11-01T11:02:48.296Z,6.95
2022-11-01T11:05:18.185Z,11.52
2022-11-01T11:07:45.003Z,11.40
2022-11-01T11:10:23.021Z,9.27
2022-11-01T11:12:54.166Z,10.48
2022-11-01T11:15:29.531Z,10.73
2022-11-01T11:17:59.830Z,13.17
2022-11-01T11:20:27.822Z,14.25
2022-11-01T11:22:54.498Z,12.02
2022-11-01T11:25:23.106Z,11.57
2022-11-01T11:30:32.283Z,7.05
2022-11-01T11:33:00.050Z,7.50
2022-11-01T11:35:28.429Z,10.02
2022-11-01T11:37:57.702Z,10.90
2022-11-01T11:40:29.119Z,14.55
2022-11-01T11:43:20.995Z,9.35
2022-11-01T11:46:09.854Z,11.73
2022-11-01T11:48:54.140Z,6.00
2022-11-01T11:51:21.741Z,12.52
2022-11-01T11:54:16.559Z,10.10
2022-11-01T11:56:45.069Z,9.23
2022-11-01T12:01:59.512Z,5.70
2022-11-01T12:04:39.985Z,8.45
2022-11-01T12:07:08.158Z,10.45
2022-11-01T12:09:48.262Z,6.30
2022-11-01T12:12:20.422Z,11.85
2022-11-01T12:14:47.025Z,10.75
2022-11-01T12:17:56.812Z,9.82
2022-11-01T12:20:25.368Z,10.88
2022-11-01T12:25:43.419Z,11.45
2022-11-01T12:28:34.853Z,9.50
2022-11-01T12:31:30.272Z,10.50
2022-11-01T12:34:06.430Z,14.70
2022-11-01T12:37:01.988Z,7.32
2022-11-01T12:39:31.883Z,8.07
2022-11-01T12:42:04.160Z,9.27
2022-11-01T12:44:37.649Z,10.88
2022-11-01T12:47:40.227Z,10.90
2022-11-01T12:50:15.732Z,7.05
2022-11-01T12:52:47.290Z,12.40
2022-11-01T12:55:32.705Z,13.10
2022-11-01T12:57:59.631Z,11.07
2022-11-01T13:00:32.318Z,8.82
2022-11-01T13:03:15.174Z,9.52
2022-11-01T13:06:03.694Z,8.32
2022-11-01T13:08:55.403Z,10.77
2022-11-01T13:11:46.127Z,10.75
2022-11-01T13:14:37.306Z,8.15
2022-11-01T13:17:11.695Z,6.47
2022-11-01T13:20:05.518Z,10.48
2022-11-01T13:22:47.290Z,12.15
2022-11-01T13:25:27.416Z,10.60
2022-11-01T13:28:15.346Z,6.70
2022-11-01T13:30:49.165Z,6.32
2022-11-01T13:33:33.991Z,6.55
2022-11-01T13:36:30.216Z,11.07
2022-11-01T13:39:38.090Z,8.60
2022-11-01T13:42:16.179Z,10.38
2022-11-01T13:44:47.726Z,10.80
2022-11-01T13:47:29.335Z,10.30
2022-11-01T13:50:17.860Z,7.95
2022-11-01T13:52:54.166Z,7.45
2022-11-01T13:55:43.902Z,13.02
2022-11-01T13:58:18.174Z,8.48
2022-11-01T14:00:46.805Z,9.90
2022-11-01T14:03:31.027Z,9.63
2022-11-01T14:06:24.827Z,11.57
2022-11-01T14:09:23.284Z,5.43
2022-11-01T14:11:56.709Z,8.60
2022-11-01T14:14:32.611Z,4.28
2022-11-01T14:17:20.220Z,8.48
2022-11-01T14:20:08.543Z,5.60
2022-11-01T14:25:04.303Z,8.55
2022-11-01T14:27:38.952Z,5.43
2022-11-01T14:30:15.635Z,9.02
2022-11-01T14:32:44.330Z,7.07
2022-11-01T14:35:26.810Z,10.15
2022-11-01T14:37:57.332Z,7.47
2022-11-01T14:40:55.369Z,11.90
2022-11-01T14:43:33.187Z,7.15
2022-11-01T14:46:03.171Z,9.63
2022-11-01T14:48:44.023Z,10.32
2022-11-01T14:51:21.848Z,7.38
2022-11-01T14:53:52.970Z,6.70
2022-11-01T14:56:22.244Z,9.55
2022-11-01T14:58:48.991Z,5.40
2022-11-01T15:01:17.780Z,5.30
2022-11-01T15:03:57.602Z,5.60
2022-11-01T15:06:30.371Z,5.57
2022-11-01T15:09:03.727Z,7.25
2022-11-01T15:11:33.940Z,7.93
2022-11-01T15:14:02.010Z,8.80
2022-11-01T15:16:30.002Z,8.70
2022-11-01T15:19:15.117Z,9.85
2022-11-01T15:21:47.098Z,8.65
2022-11-01T15:24:20.424Z,9.48
2022-11-01T15:26:47.103Z,11.48
2022-11-01T15:29:19.247Z,7.38
2022-11-01T15:31:50.592Z,10.23
2022-11-01T15:34:23.256Z,6.05
2022-11-01T15:36:51.030Z,5.97
2022-11-01T15:39:23.781Z,5.50
2022-11-01T15:41:50.938Z,9.07
2022-11-01T15:44:22.188Z,13.15
2022-11-01T15:46:49.581Z,8.23
2022-11-01T15:49:19.010Z,8.20
2022-11-01T15:52:18.992Z,7.82
2022-11-01T15:55:06.124Z,5.85
2022-11-01T15:57:46.790Z,7.35
2022-11-01T16:00:23.792Z,4.80
2022-11-01T16:03:28.735Z,4.35
2022-11-01T16:05:59.709Z,4.47
2022-11-01T16:08:39.323Z,6.68
2022-11-01T16:11:06.374Z,7.72
2022-11-01T16:13:33.393Z,10.15
2022-11-01T16:16:08.020Z,8.45
2022-11-01T16:18:36.075Z,5.38
2022-11-01T16:21:24.610Z,10.98
2022-11-01T16:24:09.596Z,9.48
2022-11-01T16:26:58.429Z,7.68
2022-11-01T16:29:46.675Z,9.15
2022-11-01T16:35:29.845Z,6.05
2022-11-01T16:37:56.476Z,6.18
2022-11-01T16:40:25.660Z,5.90
2022-11-01T16:42:59.008Z,7.07
2022-11-01T16:45:25.984Z,7.88
2022-11-01T16:47:57.942Z,8.65
2022-11-01T16:50:24.986Z,6.82
2022-11-01T16:52:51.577Z,6.50
2022-11-01T16:55:19.610Z,4.88
2022-11-01T16:57:48.064Z,7.07
2022-11-01T17:00:15.409Z,4.78
2022-11-01T17:02:42.312Z,6.30
2022-11-01T17:05:15.825Z,7.70
2022-11-01T17:07:42.456Z,5.03
2022-11-01T17:10:21.641Z,5.10
2022-11-01T17:12:48.288Z,8.77
2022-11-01T17:15:15.838Z,5.13
2022-11-01T17:17:44.147Z,5.55
2022-11-01T17:20:22.817Z,6.32
2022-11-01T17:22:51.822Z,3.83
2022-11-01T17:25:22.013Z,7.22
2022-11-01T17:27:51.280Z,10.07
2022-11-01T17:30:20.170Z,3.97
2022-11-01T17:32:46.827Z,6.72
2022-11-01T17:35:15.226Z,7.85
2022-11-01T17:37:42.344Z,6.70
2022-11-01T17:40:19.036Z,5.40
2022-11-01T17:42:45.683Z,5.68
2022-11-01T17:45:12.442Z,8.52
2022-11-01T17:47:39.775Z,5.30
2022-11-01T17:50:07.096Z,7.78
2022-11-01T17:52:33.672Z,9.13
2022-11-01T17:55:00.254Z,4.68
2022-11-01T17:57:26.831Z,5.60
2022-11-01T17:59:53.376Z,8.07
2022-11-01T18:02:20.060Z,5.28
2022-11-01T18:04:46.747Z,8.70
2022-11-01T18:07:14.539Z,6.45
2022-11-01T18:09:41.150Z,8.35
2022-11-01T18:12:15.490Z,6.90
2022-11-01T18:15:14.479Z,6.85
2022-11-01T18:17:53.898Z,8.38
2022-11-01T18:20:38.951Z,6.03
2022-11-01T18:23:18.121Z,8.20
2022-11-01T18:25:48.036Z,6.03
2022-11-01T18:28:23.090Z,3.90
2022-11-01T18:31:13.929Z,7.03
2022-11-01T18:33:50.884Z,5.88
2022-11-01T18:36:28.674Z,5.72
2022-11-01T18:38:59.611Z,4.60
2022-11-01T18:41:26.313Z,4.47
2022-11-01T18:43:54.156Z,5.93
2022-11-01T18:46:25.647Z,8.73
2022-11-01T18:49:00.102Z,5.00
2022-11-01T18:51:31.941Z,3.78
2022-11-01T18:54:18.722Z,5.05
2022-11-01T18:56:49.553Z,5.32
2022-11-01T18:59:35.646Z,5.20
2022-11-01T19:02:13.193Z,5.60
2022-11-01T19:04:44.655Z,3.97
2022-11-01T19:07:13.564Z,5.25
2022-11-01T19:09:44.088Z,5.18
2022-11-01T19:12:15.174Z,6.82
2022-11-01T19:14:42.157Z,4.00
2022-11-01T19:17:28.781Z,7.85
2022-11-01T19:19:57.074Z,5.97
2022-11-01T19:22:39.585Z,6.50
2022-11-01T19:25:32.886Z,4.88
2022-11-01T19:28:03.055Z,8.38
2022-11-01T19:30:31.620Z,5.50
2022-11-01T19:33:20.991Z,4.78
2022-11-01T19:35:49.928Z,5.28
2022-11-01T19:38:16.519Z,5.22
2022-11-01T19:40:44.098Z,6.00
2022-11-01T19:43:16.154Z,6.53
2022-11-01T19:45:54.139Z,4.30
2022-11-01T19:48:23.374Z,6.40
2022-11-01T19:50:50.089Z,7.32
2022-11-01T19:53:22.368Z,9.35
2022-11-01T19:55:59.528Z,6.90
2022-11-01T19:58:39.067Z,6.07
2022-11-01T20:01:08.892Z,6.55
2022-11-01T20:03:56.851Z,6.70
2022-11-01T20:07:02.137Z,5.38
2022-11-01T20:09:31.193Z,6.40
2022-11-01T20:11:57.807Z,4.63
2022-11-01T20:14:24.431Z,4.47
2022-11-01T20:16:50.979Z,4.18
2022-11-01T20:19:18.048Z,6.55
2022-11-01T20:21:45.003Z,8.25
2022-11-01T20:24:11.638Z,3.55
2022-11-01T20:26:38.384Z,5.22
2022-11-01T20:29:05.085Z,4.53
2022-11-01T20:31:32.015Z,5.25
2022-11-01T20:34:00.005Z,6.72
2022-11-01T20:36:27.383Z,6.63
2022-11-01T20:38:54.138Z,5.88
2022-11-01T20:41:21.138Z,5.63
2022-11-01T20:43:47.862Z,9.13
2022-11-01T20:46:14.605Z,6.75
2022-11-01T20:48:41.182Z,5.78
2022-11-01T20:51:07.748Z,7.35
2022-11-01T20:53:34.416Z,6.47
2022-11-01T20:56:01.984Z,5.57
2022-11-01T20:58:28.790Z,6.60
2022-11-01T21:00:55.928Z,5.82
2022-11-01T21:03:24.520Z,8.45
2022-11-01T21:08:23.893Z,3.22
2022-11-01T21:10:59.610Z,5.40
2022-11-01T21:13:30.110Z,6.78
2022-11-01T21:15:58.538Z,6.75
2022-11-01T21:18:37.310Z,7.07
2022-11-01T21:21:16.031Z,8.25
2022-11-01T21:23:44.547Z,8.25
2022-11-01T21:28:54.642Z,6.43
2022-11-01T21:31:28.947Z,4.55
2022-11-01T21:34:17.226Z,4.75
2022-11-01T21:36:47.135Z,4.55
2022-11-01T21:39:32.838Z,5.70
2022-11-01T21:42:25.238Z,8.77
2022-11-01T21:44:52.092Z,6.75
2022-11-01T21:47:23.076Z,5.13
2022-11-01T21:49:50.685Z,4.88
2022-11-01T21:52:19.439Z,8.07
2022-11-01T21:54:46.697Z,12.32
2022-11-01T21:57:14.504Z,9.68
2022-11-01T21:59:42.022Z,4.30
2022-11-01T22:02:12.004Z,8.65
2022-11-01T22:04:38.750Z,7.07
2022-11-01T22:07:06.818Z,5.32
2022-11-01T22:09:33.724Z,11.13
2022-11-01T22:12:01.180Z,9.88
2022-11-01T22:14:27.877Z,4.30
2022-11-01T22:16:54.525Z,8.73
2022-11-01T22:19:21.116Z,4.93
2022-11-01T22:21:47.723Z,11.00
2022-11-01T22:24:14.376Z,7.00
2022-11-01T22:26:40.921Z,4.90
2022-11-01T22:29:07.468Z,4.68
2022-11-01T22:31:34.030Z,5.95
2022-11-01T22:34:01.650Z,8.05
2022-11-01T22:36:35.063Z,6.63
2022-11-01T22:39:06.406Z,7.60
2022-11-01T22:41:36.102Z,6.85
2022-11-01T22:44:04.913Z,5.22
2022-11-01T22:46:33.991Z,8.02
2022-11-01T22:49:12.346Z,9.80
2022-11-01T22:51:41.326Z,6.10
2022-11-01T22:54:29.635Z,5.57
2022-11-01T23:02:24.999Z,3.42
2022-11-01T23:05:06.765Z,6.97
2022-11-01T23:07:43.757Z,8.40
2022-11-01T23:10:34.990Z,7.38
2022-11-01T23:13:40.905Z,7.72
2022-11-01T23:16:26.714Z,9.65
2022-11-01T23:18:54.493Z,9.20
2022-11-01T23:21:21.913Z,17.65
2022-11-01T23:23:48.693Z,11.43
2022-11-01T23:26:19.726Z,7.15
2022-11-01T23:28:48.394Z,9.38
2022-11-01T23:31:15.453Z,6.20
2022-11-01T23:33:45.579Z,6.30
2022-11-01T23:36:34.455Z,6.70
2022-11-01T23:39:09.005Z,9.38
2022-11-01T23:41:41.970Z,8.40
2022-11-01T23:44:30.735Z,8.75
2022-11-01T23:47:01.724Z,11.10
2022-11-01T23:49:30.421Z,6.53
2022-11-01T23:51:57.105Z,5.18
2022-11-01T23:54:44.184Z,12.48
2022-11-01T23:57:13.973Z,11.98
2022-11-01T23:59:40.877Z,8.90
